sensor_id;sensor_type;location;lat;lon;timestamp;P1;durP1;ratioP1;P2;durP2;ratioP2
37641;SDS011;23486;51.956;5.888;2023-02-28T00:01:30;4.70;;;1.45;;
37641;SDS011;23486;51.956;5.888;2023-02-28T00:03:56;4.50;;;1.65;;
37641;SDS011;23486;51.956;5.888;2023-02-28T00:06:25;4.05;;;1.00;;
37641;SDS011;23486;51.956;5.888;2023-02-28T00:08:51;3.72;;;1.45;;
37641;SDS011;23486;51.956;5.888;2023-02-28T00:11:17;3.15;;;1.20;;
37641;SDS011;23486;51.956;5.888;2023-02-28T00:13:44;5.78;;;0.90;;
37641;SDS011;23486;51.956;5.888;2023-02-28T00:16:12;3.58;;;1.23;;
37641;SDS011;23486;51.956;5.888;2023-02-28T00:18:40;4.28;;;1.20;;
37641;SDS011;23486;51.956;5.888;2023-02-28T00:21:05;4.57;;;1.10;;
37641;SDS011;23486;51.956;5.888;2023-02-28T00:23:31;3.30;;;1.10;;
37641;SDS011;23486;51.956;5.888;2023-02-28T00:25:57;4.70;;;1.02;;
37641;SDS011;23486;51.956;5.888;2023-02-28T00:28:23;4.32;;;1.85;;
37641;SDS011;23486;51.956;5.888;2023-02-28T00:30:49;7.93;;;2.88;;
37641;SDS011;23486;51.956;5.888;2023-02-28T00:33:15;5.75;;;1.73;;
37641;SDS011;23486;51.956;5.888;2023-02-28T00:35:40;5.65;;;1.88;;
37641;SDS011;23486;51.956;5.888;2023-02-28T00:38:06;8.82;;;2.53;;
37641;SDS011;23486;51.956;5.888;2023-02-28T00:40:32;11.07;;;1.73;;
37641;SDS011;23486;51.956;5.888;2023-02-28T00:43:00;6.07;;;2.20;;
37641;SDS011;23486;51.956;5.888;2023-02-28T00:45:26;7.40;;;1.73;;
37641;SDS011;23486;51.956;5.888;2023-02-28T00:47:54;6.05;;;1.92;;
37641;SDS011;23486;51.956;5.888;2023-02-28T00:50:20;6.78;;;1.83;;
37641;SDS011;23486;51.956;5.888;2023-02-28T00:52:46;5.50;;;1.63;;
37641;SDS011;23486;51.956;5.888;2023-02-28T00:55:12;6.57;;;1.80;;
37641;SDS011;23486;51.956;5.888;2023-02-28T00:57:38;6.10;;;2.65;;
37641;SDS011;23486;51.956;5.888;2023-02-28T01:00:04;8.27;;;2.45;;
37641;SDS011;23486;51.956;5.888;2023-02-28T01:02:31;7.38;;;1.85;;
37641;SDS011;23486;51.956;5.888;2023-02-28T01:04:56;7.05;;;2.17;;
37641;SDS011;23486;51.956;5.888;2023-02-28T01:07:22;6.55;;;2.08;;
37641;SDS011;23486;51.956;5.888;2023-02-28T01:09:48;9.30;;;2.35;;
37641;SDS011;23486;51.956;5.888;2023-02-28T01:12:14;5.47;;;1.73;;
37641;SDS011;23486;51.956;5.888;2023-02-28T01:14:39;4.82;;;1.85;;
37641;SDS011;23486;51.956;5.888;2023-02-28T01:17:05;5.45;;;2.22;;
37641;SDS011;23486;51.956;5.888;2023-02-28T01:19:31;4.05;;;1.38;;
37641;SDS011;23486;51.956;5.888;2023-02-28T01:21:59;6.55;;;1.98;;
37641;SDS011;23486;51.956;5.888;2023-02-28T01:24:26;7.60;;;1.65;;
37641;SDS011;23486;51.956;5.888;2023-02-28T01:26:51;4.65;;;1.98;;
37641;SDS011;23486;51.956;5.888;2023-02-28T01:29:17;6.60;;;1.67;;
37641;SDS011;23486;51.956;5.888;2023-02-28T01:31:45;4.90;;;1.58;;
37641;SDS011;23486;51.956;5.888;2023-02-28T01:34:11;6.50;;;1.75;;
37641;SDS011;23486;51.956;5.888;2023-02-28T01:36:37;4.57;;;1.60;;
37641;SDS011;23486;51.956;5.888;2023-02-28T01:39:03;6.03;;;2.13;;
37641;SDS011;23486;51.956;5.888;2023-02-28T01:41:29;4.15;;;1.80;;
37641;SDS011;23486;51.956;5.888;2023-02-28T01:44:04;6.22;;;1.65;;
37641;SDS011;23486;51.956;5.888;2023-02-28T01:46:33;4.35;;;1.65;;
37641;SDS011;23486;51.956;5.888;2023-02-28T01:49:01;5.22;;;1.45;;
37641;SDS011;23486;51.956;5.888;2023-02-28T01:51:31;4.68;;;1.70;;
37641;SDS011;23486;51.956;5.888;2023-02-28T01:54:03;7.68;;;1.60;;
37641;SDS011;23486;51.956;5.888;2023-02-28T01:56:38;5.38;;;1.52;;
37641;SDS011;23486;51.956;5.888;2023-02-28T01:59:15;3.38;;;0.80;;
37641;SDS011;23486;51.956;5.888;2023-02-28T02:01:46;3.58;;;1.40;;
37641;SDS011;23486;51.956;5.888;2023-02-28T02:04:13;6.15;;;1.60;;
37641;SDS011;23486;51.956;5.888;2023-02-28T02:06:44;3.25;;;0.93;;
37641;SDS011;23486;51.956;5.888;2023-02-28T02:09:12;4.78;;;1.35;;
37641;SDS011;23486;51.956;5.888;2023-02-28T02:11:39;5.45;;;1.38;;
37641;SDS011;23486;51.956;5.888;2023-02-28T02:14:16;2.90;;;0.90;;
37641;SDS011;23486;51.956;5.888;2023-02-28T02:16:52;4.22;;;1.23;;
37641;SDS011;23486;51.956;5.888;2023-02-28T02:36:35;6.32;;;1.75;;
37641;SDS011;23486;51.956;5.888;2023-02-28T02:41:45;5.68;;;2.15;;
37641;SDS011;23486;51.956;5.888;2023-02-28T02:44:22;5.07;;;1.73;;
37641;SDS011;23486;51.956;5.888;2023-02-28T02:46:58;4.50;;;1.30;;
37641;SDS011;23486;51.956;5.888;2023-02-28T02:49:43;4.80;;;1.33;;
37641;SDS011;23486;51.956;5.888;2023-02-28T02:52:20;5.35;;;1.83;;
37641;SDS011;23486;51.956;5.888;2023-02-28T02:54:50;3.85;;;1.42;;
37641;SDS011;23486;51.956;5.888;2023-02-28T03:00:21;3.83;;;1.55;;
37641;SDS011;23486;51.956;5.888;2023-02-28T03:02:52;6.72;;;1.85;;
37641;SDS011;23486;51.956;5.888;2023-02-28T03:05:24;3.90;;;1.42;;
37641;SDS011;23486;51.956;5.888;2023-02-28T03:07:52;4.45;;;2.22;;
37641;SDS011;23486;51.956;5.888;2023-02-28T03:12:54;4.18;;;1.65;;
37641;SDS011;23486;51.956;5.888;2023-02-28T03:15:33;5.63;;;2.05;;
37641;SDS011;23486;51.956;5.888;2023-02-28T03:18:32;4.35;;;1.90;;
37641;SDS011;23486;51.956;5.888;2023-02-28T03:26:41;5.22;;;1.63;;
37641;SDS011;23486;51.956;5.888;2023-02-28T03:29:21;4.13;;;1.33;;
37641;SDS011;23486;51.956;5.888;2023-02-28T03:31:58;4.70;;;1.40;;
37641;SDS011;23486;51.956;5.888;2023-02-28T03:34:29;2.90;;;1.02;;
37641;SDS011;23486;51.956;5.888;2023-02-28T03:37:07;5.40;;;1.10;;
37641;SDS011;23486;51.956;5.888;2023-02-28T03:39:37;3.90;;;1.55;;
37641;SDS011;23486;51.956;5.888;2023-02-28T03:42:08;4.13;;;1.33;;
37641;SDS011;23486;51.956;5.888;2023-02-28T03:44:51;5.70;;;1.92;;
37641;SDS011;23486;51.956;5.888;2023-02-28T03:47:23;6.72;;;2.10;;
37641;SDS011;23486;51.956;5.888;2023-02-28T03:53:19;6.97;;;2.33;;
37641;SDS011;23486;51.956;5.888;2023-02-28T03:56:03;5.63;;;2.10;;
37641;SDS011;23486;51.956;5.888;2023-02-28T04:01:39;5.57;;;2.17;;
37641;SDS011;23486;51.956;5.888;2023-02-28T04:04:07;3.90;;;1.40;;
37641;SDS011;23486;51.956;5.888;2023-02-28T04:06:34;4.03;;;1.48;;
37641;SDS011;23486;51.956;5.888;2023-02-28T04:09:01;3.90;;;0.98;;
37641;SDS011;23486;51.956;5.888;2023-02-28T04:11:41;2.85;;;1.17;;
37641;SDS011;23486;51.956;5.888;2023-02-28T04:14:10;4.82;;;1.52;;
37641;SDS011;23486;51.956;5.888;2023-02-28T04:16:37;4.55;;;1.33;;
37641;SDS011;23486;51.956;5.888;2023-02-28T04:19:04;4.75;;;1.48;;
37641;SDS011;23486;51.956;5.888;2023-02-28T04:21:32;3.92;;;1.20;;
37641;SDS011;23486;51.956;5.888;2023-02-28T04:24:10;3.33;;;1.40;;
37641;SDS011;23486;51.956;5.888;2023-02-28T04:26:41;4.60;;;1.40;;
37641;SDS011;23486;51.956;5.888;2023-02-28T04:29:09;3.08;;;1.25;;
37641;SDS011;23486;51.956;5.888;2023-02-28T04:31:38;3.97;;;1.25;;
37641;SDS011;23486;51.956;5.888;2023-02-28T04:34:03;5.82;;;1.50;;
37641;SDS011;23486;51.956;5.888;2023-02-28T04:36:29;3.65;;;1.60;;
37641;SDS011;23486;51.956;5.888;2023-02-28T04:38:55;5.10;;;1.50;;
37641;SDS011;23486;51.956;5.888;2023-02-28T04:41:21;5.45;;;1.48;;
37641;SDS011;23486;51.956;5.888;2023-02-28T04:43:47;4.45;;;1.17;;
37641;SDS011;23486;51.956;5.888;2023-02-28T04:46:16;2.17;;;0.70;;
37641;SDS011;23486;51.956;5.888;2023-02-28T04:48:43;4.20;;;0.90;;
37641;SDS011;23486;51.956;5.888;2023-02-28T04:51:12;3.30;;;0.70;;
37641;SDS011;23486;51.956;5.888;2023-02-28T04:53:39;3.80;;;0.98;;
37641;SDS011;23486;51.956;5.888;2023-02-28T04:56:06;2.95;;;0.80;;
37641;SDS011;23486;51.956;5.888;2023-02-28T04:58:39;2.67;;;0.60;;
37641;SDS011;23486;51.956;5.888;2023-02-28T05:01:06;2.95;;;0.68;;
37641;SDS011;23486;51.956;5.888;2023-02-28T05:03:41;1.77;;;0.50;;
37641;SDS011;23486;51.956;5.888;2023-02-28T05:06:08;3.63;;;0.60;;
37641;SDS011;23486;51.956;5.888;2023-02-28T05:08:35;2.75;;;0.60;;
37641;SDS011;23486;51.956;5.888;2023-02-28T05:11:00;2.33;;;0.70;;
37641;SDS011;23486;51.956;5.888;2023-02-28T05:13:27;4.28;;;0.60;;
37641;SDS011;23486;51.956;5.888;2023-02-28T05:15:53;3.83;;;0.93;;
37641;SDS011;23486;51.956;5.888;2023-02-28T05:18:19;4.50;;;0.80;;
37641;SDS011;23486;51.956;5.888;2023-02-28T05:20:44;6.32;;;1.20;;
37641;SDS011;23486;51.956;5.888;2023-02-28T05:23:13;3.13;;;1.02;;
37641;SDS011;23486;51.956;5.888;2023-02-28T05:25:40;4.38;;;0.80;;
37641;SDS011;23486;51.956;5.888;2023-02-28T05:28:06;5.22;;;1.00;;
37641;SDS011;23486;51.956;5.888;2023-02-28T05:30:32;6.00;;;2.38;;
37641;SDS011;23486;51.956;5.888;2023-02-28T05:32:58;2.65;;;0.80;;
37641;SDS011;23486;51.956;5.888;2023-02-28T05:35:24;2.50;;;0.45;;
37641;SDS011;23486;51.956;5.888;2023-02-28T05:37:50;1.63;;;0.50;;
37641;SDS011;23486;51.956;5.888;2023-02-28T05:40:16;1.60;;;0.43;;
37641;SDS011;23486;51.956;5.888;2023-02-28T05:42:44;2.35;;;0.73;;
37641;SDS011;23486;51.956;5.888;2023-02-28T05:45:10;2.05;;;0.52;;
37641;SDS011;23486;51.956;5.888;2023-02-28T05:47:36;3.28;;;0.60;;
37641;SDS011;23486;51.956;5.888;2023-02-28T05:50:01;2.90;;;0.75;;
37641;SDS011;23486;51.956;5.888;2023-02-28T05:52:28;2.72;;;0.60;;
37641;SDS011;23486;51.956;5.888;2023-02-28T05:54:54;3.13;;;0.75;;
37641;SDS011;23486;51.956;5.888;2023-02-28T05:57:20;4.20;;;1.92;;
37641;SDS011;23486;51.956;5.888;2023-02-28T05:59:46;2.17;;;0.60;;
37641;SDS011;23486;51.956;5.888;2023-02-28T06:02:12;2.38;;;0.50;;
37641;SDS011;23486;51.956;5.888;2023-02-28T06:04:40;1.73;;;0.50;;
37641;SDS011;23486;51.956;5.888;2023-02-28T06:07:06;1.38;;;0.47;;
37641;SDS011;23486;51.956;5.888;2023-02-28T06:09:32;1.88;;;0.50;;
37641;SDS011;23486;51.956;5.888;2023-02-28T06:11:58;4.60;;;0.73;;
37641;SDS011;23486;51.956;5.888;2023-02-28T06:14:25;2.83;;;0.60;;
37641;SDS011;23486;51.956;5.888;2023-02-28T06:16:51;3.50;;;0.80;;
37641;SDS011;23486;51.956;5.888;2023-02-28T06:19:17;3.90;;;1.40;;
37641;SDS011;23486;51.956;5.888;2023-02-28T06:21:43;2.90;;;0.70;;
37641;SDS011;23486;51.956;5.888;2023-02-28T06:24:09;5.10;;;0.93;;
37641;SDS011;23486;51.956;5.888;2023-02-28T06:26:35;4.35;;;0.77;;
37641;SDS011;23486;51.956;5.888;2023-02-28T06:29:00;2.35;;;0.80;;
37641;SDS011;23486;51.956;5.888;2023-02-28T06:31:26;3.90;;;0.60;;
37641;SDS011;23486;51.956;5.888;2023-02-28T06:33:54;2.03;;;0.60;;
37641;SDS011;23486;51.956;5.888;2023-02-28T06:36:20;3.25;;;0.60;;
37641;SDS011;23486;51.956;5.888;2023-02-28T06:38:46;1.67;;;0.43;;
37641;SDS011;23486;51.956;5.888;2023-02-28T06:41:16;1.70;;;0.40;;
37641;SDS011;23486;51.956;5.888;2023-02-28T06:43:42;2.85;;;0.57;;
37641;SDS011;23486;51.956;5.888;2023-02-28T06:46:10;1.80;;;0.50;;
37641;SDS011;23486;51.956;5.888;2023-02-28T06:48:38;1.58;;;0.43;;
37641;SDS011;23486;51.956;5.888;2023-02-28T06:51:08;2.05;;;0.40;;
37641;SDS011;23486;51.956;5.888;2023-02-28T06:53:36;3.05;;;0.50;;
37641;SDS011;23486;51.956;5.888;2023-02-28T06:56:04;2.95;;;0.50;;
37641;SDS011;23486;51.956;5.888;2023-02-28T06:58:34;2.13;;;0.52;;
37641;SDS011;23486;51.956;5.888;2023-02-28T07:01:00;3.03;;;0.60;;
37641;SDS011;23486;51.956;5.888;2023-02-28T07:03:26;1.67;;;0.50;;
37641;SDS011;23486;51.956;5.888;2023-02-28T07:05:52;4.43;;;0.60;;
37641;SDS011;23486;51.956;5.888;2023-02-28T07:08:21;2.83;;;0.70;;
37641;SDS011;23486;51.956;5.888;2023-02-28T07:10:54;3.75;;;0.65;;
37641;SDS011;23486;51.956;5.888;2023-02-28T07:13:23;1.42;;;0.50;;
37641;SDS011;23486;51.956;5.888;2023-02-28T07:15:52;2.33;;;0.60;;
37641;SDS011;23486;51.956;5.888;2023-02-28T07:18:25;2.55;;;0.70;;
37641;SDS011;23486;51.956;5.888;2023-02-28T07:20:51;2.88;;;0.80;;
37641;SDS011;23486;51.956;5.888;2023-02-28T07:23:17;4.22;;;0.73;;
37641;SDS011;23486;51.956;5.888;2023-02-28T07:25:49;3.75;;;0.60;;
37641;SDS011;23486;51.956;5.888;2023-02-28T07:28:16;3.28;;;0.68;;
37641;SDS011;23486;51.956;5.888;2023-02-28T07:30:41;4.63;;;0.85;;
37641;SDS011;23486;51.956;5.888;2023-02-28T07:33:07;2.00;;;0.60;;
37641;SDS011;23486;51.956;5.888;2023-02-28T07:35:33;3.97;;;1.00;;
37641;SDS011;23486;51.956;5.888;2023-02-28T07:37:59;2.67;;;0.73;;
37641;SDS011;23486;51.956;5.888;2023-02-28T07:40:25;1.90;;;0.70;;
37641;SDS011;23486;51.956;5.888;2023-02-28T07:42:51;2.45;;;1.00;;
37641;SDS011;23486;51.956;5.888;2023-02-28T07:45:17;2.63;;;0.75;;
37641;SDS011;23486;51.956;5.888;2023-02-28T07:47:45;2.45;;;0.80;;
37641;SDS011;23486;51.956;5.888;2023-02-28T07:50:12;2.97;;;1.08;;
37641;SDS011;23486;51.956;5.888;2023-02-28T07:52:40;2.90;;;0.70;;
37641;SDS011;23486;51.956;5.888;2023-02-28T07:55:06;3.13;;;0.88;;
37641;SDS011;23486;51.956;5.888;2023-02-28T07:57:33;5.15;;;1.00;;
37641;SDS011;23486;51.956;5.888;2023-02-28T07:59:59;3.22;;;1.00;;
37641;SDS011;23486;51.956;5.888;2023-02-28T08:02:24;3.28;;;0.90;;
37641;SDS011;23486;51.956;5.888;2023-02-28T08:04:50;3.65;;;1.08;;
37641;SDS011;23486;51.956;5.888;2023-02-28T08:07:16;3.35;;;1.23;;
37641;SDS011;23486;51.956;5.888;2023-02-28T08:09:43;2.75;;;0.90;;
37641;SDS011;23486;51.956;5.888;2023-02-28T08:12:09;3.10;;;1.00;;
37641;SDS011;23486;51.956;5.888;2023-02-28T08:14:36;2.47;;;0.80;;
37641;SDS011;23486;51.956;5.888;2023-02-28T08:17:02;2.95;;;0.73;;
37641;SDS011;23486;51.956;5.888;2023-02-28T08:19:31;3.17;;;0.82;;
37641;SDS011;23486;51.956;5.888;2023-02-28T08:21:57;3.90;;;0.90;;
37641;SDS011;23486;51.956;5.888;2023-02-28T08:24:23;4.28;;;0.85;;
37641;SDS011;23486;51.956;5.888;2023-02-28T08:26:49;2.75;;;0.70;;
37641;SDS011;23486;51.956;5.888;2023-02-28T08:29:15;2.75;;;0.50;;
37641;SDS011;23486;51.956;5.888;2023-02-28T08:31:41;3.65;;;0.70;;
37641;SDS011;23486;51.956;5.888;2023-02-28T08:34:10;2.20;;;0.82;;
37641;SDS011;23486;51.956;5.888;2023-02-28T08:36:38;3.88;;;0.95;;
37641;SDS011;23486;51.956;5.888;2023-02-28T08:39:04;2.22;;;0.55;;
37641;SDS011;23486;51.956;5.888;2023-02-28T08:41:30;2.05;;;0.70;;
37641;SDS011;23486;51.956;5.888;2023-02-28T08:43:56;1.88;;;0.60;;
37641;SDS011;23486;51.956;5.888;2023-02-28T08:46:22;4.15;;;0.68;;
37641;SDS011;23486;51.956;5.888;2023-02-28T08:48:51;2.60;;;0.60;;
37641;SDS011;23486;51.956;5.888;2023-02-28T08:51:18;2.53;;;0.50;;
37641;SDS011;23486;51.956;5.888;2023-02-28T08:53:50;1.80;;;0.45;;
37641;SDS011;23486;51.956;5.888;2023-02-28T08:56:17;2.35;;;0.50;;
37641;SDS011;23486;51.956;5.888;2023-02-28T08:58:44;2.10;;;0.50;;
37641;SDS011;23486;51.956;5.888;2023-02-28T09:01:14;2.85;;;0.55;;
37641;SDS011;23486;51.956;5.888;2023-02-28T09:03:40;2.35;;;0.55;;
37641;SDS011;23486;51.956;5.888;2023-02-28T09:06:07;3.92;;;0.77;;
37641;SDS011;23486;51.956;5.888;2023-02-28T09:08:34;2.72;;;0.65;;
37641;SDS011;23486;51.956;5.888;2023-02-28T09:11:00;1.35;;;0.45;;
37641;SDS011;23486;51.956;5.888;2023-02-28T09:13:29;1.40;;;0.43;;
37641;SDS011;23486;51.956;5.888;2023-02-28T09:15:57;1.70;;;0.40;;
37641;SDS011;23486;51.956;5.888;2023-02-28T09:18:23;1.52;;;0.50;;
37641;SDS011;23486;51.956;5.888;2023-02-28T09:20:49;1.95;;;0.40;;
37641;SDS011;23486;51.956;5.888;2023-02-28T09:23:15;1.20;;;0.40;;
37641;SDS011;23486;51.956;5.888;2023-02-28T09:25:47;1.20;;;0.30;;
37641;SDS011;23486;51.956;5.888;2023-02-28T09:28:14;1.67;;;0.40;;
37641;SDS011;23486;51.956;5.888;2023-02-28T09:30:41;2.05;;;0.40;;
37641;SDS011;23486;51.956;5.888;2023-02-28T09:33:07;1.67;;;0.47;;
37641;SDS011;23486;51.956;5.888;2023-02-28T09:35:33;1.75;;;0.40;;
37641;SDS011;23486;51.956;5.888;2023-02-28T09:37:58;1.70;;;0.40;;
37641;SDS011;23486;51.956;5.888;2023-02-28T09:40:24;2.15;;;0.40;;
37641;SDS011;23486;51.956;5.888;2023-02-28T09:42:51;1.73;;;0.40;;
37641;SDS011;23486;51.956;5.888;2023-02-28T09:47:54;1.75;;;0.40;;
37641;SDS011;23486;51.956;5.888;2023-02-28T09:53:06;2.05;;;0.50;;
37641;SDS011;23486;51.956;5.888;2023-02-28T09:55:59;2.63;;;0.60;;
37641;SDS011;23486;51.956;5.888;2023-02-28T09:58:44;2.45;;;0.60;;
37641;SDS011;23486;51.956;5.888;2023-02-28T10:01:25;3.22;;;0.40;;
37641;SDS011;23486;51.956;5.888;2023-02-28T10:04:03;1.98;;;0.60;;
37641;SDS011;23486;51.956;5.888;2023-02-28T10:06:50;1.70;;;0.50;;
37641;SDS011;23486;51.956;5.888;2023-02-28T10:09:18;1.75;;;0.40;;
37641;SDS011;23486;51.956;5.888;2023-02-28T10:11:45;2.08;;;0.90;;
37641;SDS011;23486;51.956;5.888;2023-02-28T10:14:14;2.40;;;0.45;;
37641;SDS011;23486;51.956;5.888;2023-02-28T10:21:58;2.05;;;0.40;;
37641;SDS011;23486;51.956;5.888;2023-02-28T10:29:53;2.33;;;0.40;;
37641;SDS011;23486;51.956;5.888;2023-02-28T10:32:27;2.70;;;0.80;;
37641;SDS011;23486;51.956;5.888;2023-02-28T10:35:00;2.00;;;0.40;;
37641;SDS011;23486;51.956;5.888;2023-02-28T10:37:26;1.85;;;0.40;;
37641;SDS011;23486;51.956;5.888;2023-02-28T10:39:53;1.08;;;0.30;;
37641;SDS011;23486;51.956;5.888;2023-02-28T10:42:20;1.42;;;0.40;;
37641;SDS011;23486;51.956;5.888;2023-02-28T10:44:45;1.45;;;0.40;;
37641;SDS011;23486;51.956;5.888;2023-02-28T10:47:17;3.10;;;0.50;;
37641;SDS011;23486;51.956;5.888;2023-02-28T10:52:12;3.35;;;0.40;;
37641;SDS011;23486;51.956;5.888;2023-02-28T10:54:37;1.42;;;0.38;;
37641;SDS011;23486;51.956;5.888;2023-02-28T10:59:32;1.75;;;0.40;;
37641;SDS011;23486;51.956;5.888;2023-02-28T11:01:57;1.67;;;0.32;;
37641;SDS011;23486;51.956;5.888;2023-02-28T11:07:16;1.50;;;0.40;;
37641;SDS011;23486;51.956;5.888;2023-02-28T11:09:48;1.58;;;0.43;;
37641;SDS011;23486;51.956;5.888;2023-02-28T11:12:48;2.05;;;0.50;;
37641;SDS011;23486;51.956;5.888;2023-02-28T11:15:30;2.67;;;0.70;;
37641;SDS011;23486;51.956;5.888;2023-02-28T11:20:36;1.50;;;0.50;;
37641;SDS011;23486;51.956;5.888;2023-02-28T11:23:03;1.75;;;0.40;;
37641;SDS011;23486;51.956;5.888;2023-02-28T11:25:30;2.10;;;0.75;;
37641;SDS011;23486;51.956;5.888;2023-02-28T11:28:25;1.77;;;0.40;;
37641;SDS011;23486;51.956;5.888;2023-02-28T11:45:07;2.72;;;0.52;;
37641;SDS011;23486;51.956;5.888;2023-02-28T12:05:00;2.55;;;0.43;;
37641;SDS011;23486;51.956;5.888;2023-02-28T12:07:42;1.40;;;0.40;;
37641;SDS011;23486;51.956;5.888;2023-02-28T12:10:35;2.95;;;0.50;;
37641;SDS011;23486;51.956;5.888;2023-02-28T12:21:56;2.38;;;0.50;;
37641;SDS011;23486;51.956;5.888;2023-02-28T12:26:51;2.58;;;0.63;;
37641;SDS011;23486;51.956;5.888;2023-02-28T12:29:25;2.28;;;0.63;;
37641;SDS011;23486;51.956;5.888;2023-02-28T12:34:47;2.38;;;0.60;;
37641;SDS011;23486;51.956;5.888;2023-02-28T12:37:19;2.58;;;0.65;;
37641;SDS011;23486;51.956;5.888;2023-02-28T12:40:15;2.35;;;0.70;;
37641;SDS011;23486;51.956;5.888;2023-02-28T12:42:56;1.85;;;0.52;;
37641;SDS011;23486;51.956;5.888;2023-02-28T12:48:38;2.35;;;0.50;;
37641;SDS011;23486;51.956;5.888;2023-02-28T12:51:08;4.68;;;1.25;;
37641;SDS011;23486;51.956;5.888;2023-02-28T13:05:24;3.05;;;0.60;;
37641;SDS011;23486;51.956;5.888;2023-02-28T13:10:45;4.63;;;0.60;;
37641;SDS011;23486;51.956;5.888;2023-02-28T13:13:19;1.80;;;0.63;;
37641;SDS011;23486;51.956;5.888;2023-02-28T13:15:57;2.13;;;0.60;;
37641;SDS011;23486;51.956;5.888;2023-02-28T13:18:35;2.03;;;0.50;;
37641;SDS011;23486;51.956;5.888;2023-02-28T13:21:02;1.58;;;0.60;;
37641;SDS011;23486;51.956;5.888;2023-02-28T13:24:04;1.83;;;0.52;;
37641;SDS011;23486;51.956;5.888;2023-02-28T13:34:31;1.38;;;0.52;;
37641;SDS011;23486;51.956;5.888;2023-02-28T13:39:57;2.42;;;0.85;;
37641;SDS011;23486;51.956;5.888;2023-02-28T13:42:36;1.90;;;0.77;;
37641;SDS011;23486;51.956;5.888;2023-02-28T13:47:53;1.67;;;0.60;;
37641;SDS011;23486;51.956;5.888;2023-02-28T13:50:31;2.33;;;0.50;;
37641;SDS011;23486;51.956;5.888;2023-02-28T14:02:01;2.00;;;0.68;;
37641;SDS011;23486;51.956;5.888;2023-02-28T14:07:23;3.35;;;0.60;;
37641;SDS011;23486;51.956;5.888;2023-02-28T14:10:00;2.03;;;0.50;;
37641;SDS011;23486;51.956;5.888;2023-02-28T14:15:26;2.33;;;0.40;;
37641;SDS011;23486;51.956;5.888;2023-02-28T14:18:14;3.17;;;0.47;;
37641;SDS011;23486;51.956;5.888;2023-02-28T14:20:57;1.73;;;0.40;;
37641;SDS011;23486;51.956;5.888;2023-02-28T14:29:17;2.70;;;0.50;;
37641;SDS011;23486;51.956;5.888;2023-02-28T14:37:29;2.47;;;0.50;;
37641;SDS011;23486;51.956;5.888;2023-02-28T14:39:58;1.95;;;0.50;;
37641;SDS011;23486;51.956;5.888;2023-02-28T14:42:33;2.70;;;0.73;;
37641;SDS011;23486;51.956;5.888;2023-02-28T14:45:18;1.70;;;0.57;;
37641;SDS011;23486;51.956;5.888;2023-02-28T14:47:46;4.32;;;0.63;;
37641;SDS011;23486;51.956;5.888;2023-02-28T14:50:19;2.47;;;0.70;;
37641;SDS011;23486;51.956;5.888;2023-02-28T14:52:46;2.60;;;0.88;;
37641;SDS011;23486;51.956;5.888;2023-02-28T14:55:17;2.78;;;0.80;;
37641;SDS011;23486;51.956;5.888;2023-02-28T14:57:51;3.40;;;0.47;;
37641;SDS011;23486;51.956;5.888;2023-02-28T15:00:29;1.92;;;0.50;;
37641;SDS011;23486;51.956;5.888;2023-02-28T15:02:56;1.90;;;0.60;;
37641;SDS011;23486;51.956;5.888;2023-02-28T15:07:49;3.63;;;0.70;;
37641;SDS011;23486;51.956;5.888;2023-02-28T15:10:30;3.15;;;0.50;;
37641;SDS011;23486;51.956;5.888;2023-02-28T15:15:45;3.20;;;0.73;;
37641;SDS011;23486;51.956;5.888;2023-02-28T15:21:06;2.40;;;0.50;;
37641;SDS011;23486;51.956;5.888;2023-02-28T15:23:44;2.65;;;0.70;;
37641;SDS011;23486;51.956;5.888;2023-02-28T15:26:18;1.42;;;0.50;;
37641;SDS011;23486;51.956;5.888;2023-02-28T15:28:47;2.08;;;0.40;;
37641;SDS011;23486;51.956;5.888;2023-02-28T15:31:40;4.75;;;0.60;;
37641;SDS011;23486;51.956;5.888;2023-02-28T15:34:20;1.80;;;0.50;;
37641;SDS011;23486;51.956;5.888;2023-02-28T15:36:48;2.30;;;0.55;;
37641;SDS011;23486;51.956;5.888;2023-02-28T15:39:21;2.25;;;0.65;;
37641;SDS011;23486;51.956;5.888;2023-02-28T15:41:52;2.55;;;0.50;;
37641;SDS011;23486;51.956;5.888;2023-02-28T15:44:34;1.45;;;0.40;;
37641;SDS011;23486;51.956;5.888;2023-02-28T15:47:01;2.92;;;0.50;;
37641;SDS011;23486;51.956;5.888;2023-02-28T15:50:06;2.00;;;0.40;;
37641;SDS011;23486;51.956;5.888;2023-02-28T15:55:12;1.38;;;0.40;;
37641;SDS011;23486;51.956;5.888;2023-02-28T15:57:44;2.35;;;0.40;;
37641;SDS011;23486;51.956;5.888;2023-02-28T16:00:14;2.63;;;0.50;;
37641;SDS011;23486;51.956;5.888;2023-02-28T16:02:43;2.95;;;0.60;;
37641;SDS011;23486;51.956;5.888;2023-02-28T16:07:38;2.30;;;0.40;;
37641;SDS011;23486;51.956;5.888;2023-02-28T16:12:36;3.20;;;0.50;;
37641;SDS011;23486;51.956;5.888;2023-02-28T16:15:25;2.22;;;0.50;;
37641;SDS011;23486;51.956;5.888;2023-02-28T16:17:52;1.90;;;0.50;;
37641;SDS011;23486;51.956;5.888;2023-02-28T16:20:22;3.20;;;0.60;;
37641;SDS011;23486;51.956;5.888;2023-02-28T16:22:49;2.15;;;0.55;;
37641;SDS011;23486;51.956;5.888;2023-02-28T16:25:17;2.25;;;0.60;;
37641;SDS011;23486;51.956;5.888;2023-02-28T16:27:46;2.60;;;0.70;;
37641;SDS011;23486;51.956;5.888;2023-02-28T16:30:21;2.60;;;0.50;;
37641;SDS011;23486;51.956;5.888;2023-02-28T16:32:51;2.72;;;0.70;;
37641;SDS011;23486;51.956;5.888;2023-02-28T16:35:19;3.13;;;0.52;;
37641;SDS011;23486;51.956;5.888;2023-02-28T16:37:47;3.38;;;0.65;;
37641;SDS011;23486;51.956;5.888;2023-02-28T16:40:16;2.47;;;0.65;;
37641;SDS011;23486;51.956;5.888;2023-02-28T16:42:46;3.17;;;0.88;;
37641;SDS011;23486;51.956;5.888;2023-02-28T16:45:16;3.08;;;0.60;;
37641;SDS011;23486;51.956;5.888;2023-02-28T16:47:44;2.80;;;0.70;;
37641;SDS011;23486;51.956;5.888;2023-02-28T16:52:46;3.22;;;0.50;;
37641;SDS011;23486;51.956;5.888;2023-02-28T16:55:13;2.08;;;0.98;;
37641;SDS011;23486;51.956;5.888;2023-02-28T16:57:41;2.30;;;0.57;;
37641;SDS011;23486;51.956;5.888;2023-02-28T17:00:12;1.98;;;0.50;;
37641;SDS011;23486;51.956;5.888;2023-02-28T17:02:39;2.50;;;0.55;;
37641;SDS011;23486;51.956;5.888;2023-02-28T17:05:05;3.15;;;0.60;;
37641;SDS011;23486;51.956;5.888;2023-02-28T17:07:34;3.78;;;0.82;;
37641;SDS011;23486;51.956;5.888;2023-02-28T17:12:51;2.70;;;0.70;;
37641;SDS011;23486;51.956;5.888;2023-02-28T17:15:18;2.03;;;0.80;;
37641;SDS011;23486;51.956;5.888;2023-02-28T17:17:45;3.72;;;0.75;;
37641;SDS011;23486;51.956;5.888;2023-02-28T17:20:13;1.80;;;0.60;;
37641;SDS011;23486;51.956;5.888;2023-02-28T17:22:42;2.08;;;0.60;;
37641;SDS011;23486;51.956;5.888;2023-02-28T17:25:08;3.42;;;0.70;;
37641;SDS011;23486;51.956;5.888;2023-02-28T17:27:35;1.98;;;0.63;;
37641;SDS011;23486;51.956;5.888;2023-02-28T17:30:02;1.83;;;0.60;;
37641;SDS011;23486;51.956;5.888;2023-02-28T17:32:41;4.35;;;0.98;;
37641;SDS011;23486;51.956;5.888;2023-02-28T17:35:07;2.35;;;0.70;;
37641;SDS011;23486;51.956;5.888;2023-02-28T17:43:07;2.97;;;0.70;;
37641;SDS011;23486;51.956;5.888;2023-02-28T17:45:44;4.43;;;0.90;;
37641;SDS011;23486;51.956;5.888;2023-02-28T17:48:59;3.72;;;1.40;;
37641;SDS011;23486;51.956;5.888;2023-02-28T17:51:28;2.72;;;0.52;;
37641;SDS011;23486;51.956;5.888;2023-02-28T17:54:35;4.07;;;1.20;;
37641;SDS011;23486;51.956;5.888;2023-02-28T17:59:57;2.60;;;0.95;;
37641;SDS011;23486;51.956;5.888;2023-02-28T18:02:26;2.83;;;0.95;;
37641;SDS011;23486;51.956;5.888;2023-02-28T18:04:52;2.83;;;0.90;;
37641;SDS011;23486;51.956;5.888;2023-02-28T18:07:18;3.38;;;0.90;;
37641;SDS011;23486;51.956;5.888;2023-02-28T18:09:46;2.40;;;0.82;;
37641;SDS011;23486;51.956;5.888;2023-02-28T18:12:12;2.78;;;0.90;;
37641;SDS011;23486;51.956;5.888;2023-02-28T18:14:37;3.75;;;1.02;;
37641;SDS011;23486;51.956;5.888;2023-02-28T18:17:03;3.88;;;1.10;;
37641;SDS011;23486;51.956;5.888;2023-02-28T18:19:28;5.38;;;0.95;;
37641;SDS011;23486;51.956;5.888;2023-02-28T18:21:54;2.97;;;1.10;;